createdAt,value
2018-10-05T00:01:04.223Z,99.90
2018-10-05T00:03:33.987Z,99.90
2018-10-05T00:06:03.762Z,99.90
2018-10-05T00:08:33.848Z,99.90
2018-10-05T00:11:03.895Z,99.90
2018-10-05T00:13:33.687Z,99.90
2018-10-05T00:16:04.101Z,99.90
2018-10-05T00:18:34.043Z,99.90
2018-10-05T00:21:04.107Z,99.90
2018-10-05T00:23:33.944Z,99.90
2018-10-05T00:26:03.763Z,99.90
2018-10-05T00:28:34.124Z,99.90
2018-10-05T00:31:03.862Z,99.90
2018-10-05T00:33:33.974Z,99.90
2018-10-05T00:36:04.044Z,99.90
2018-10-05T00:38:34.120Z,99.90
2018-10-05T00:41:04.087Z,99.90
2018-10-05T00:43:34.167Z,99.90
2018-10-05T00:46:04.052Z,99.90
2018-10-05T00:48:33.790Z,99.90
2018-10-05T00:51:03.591Z,99.90
2018-10-05T00:53:33.599Z,99.90
2018-10-05T00:56:03.609Z,99.90
2018-10-05T00:58:33.676Z,99.90
2018-10-05T01:01:03.537Z,99.90
2018-10-05T01:03:33.406Z,99.90
2018-10-05T01:06:03.450Z,99.90
2018-10-05T01:08:33.597Z,99.90
2018-10-05T01:11:03.732Z,99.90
2018-10-05T01:13:33.524Z,99.90
2018-10-05T01:16:03.619Z,99.90
2018-10-05T01:18:33.598Z,99.90
2018-10-05T01:21:03.417Z,99.90
2018-10-05T01:23:33.156Z,99.90
2018-10-05T01:26:02.995Z,99.90
2018-10-05T01:28:32.820Z,99.90
2018-10-05T01:31:02.673Z,99.90
2018-10-05T01:33:32.448Z,99.90
2018-10-05T01:36:02.411Z,99.90
2018-10-05T01:38:32.432Z,99.90
2018-10-05T01:41:02.513Z,99.90
2018-10-05T01:43:32.278Z,99.90
2018-10-05T01:46:02.098Z,99.90
2018-10-05T01:48:32.118Z,99.90
2018-10-05T01:51:02.298Z,99.90
2018-10-05T01:53:32.243Z,99.90
2018-10-05T01:56:02.313Z,99.90
2018-10-05T01:58:34.493Z,99.90
2018-10-05T02:01:04.996Z,99.90
2018-10-05T02:03:34.805Z,99.90
2018-10-05T02:06:04.529Z,99.90
2018-10-05T02:08:34.725Z,99.90
2018-10-05T02:11:04.505Z,99.90
2018-10-05T02:13:34.298Z,99.90
2018-10-05T02:16:04.007Z,99.90
2018-10-05T02:18:33.733Z,99.90
2018-10-05T02:21:03.526Z,99.90
2018-10-05T02:23:33.527Z,99.90
2018-10-05T02:26:03.469Z,99.90
2018-10-05T02:28:33.463Z,99.90
2018-10-05T02:31:03.549Z,99.90
2018-10-05T02:33:33.400Z,99.90
2018-10-05T02:36:04.040Z,99.90
2018-10-05T02:38:33.943Z,99.90
2018-10-05T02:41:03.934Z,99.90
2018-10-05T02:43:34.557Z,99.90
2018-10-05T02:46:04.684Z,99.90
2018-10-05T02:48:34.727Z,99.90
2018-10-05T02:51:04.443Z,99.90
2018-10-05T02:53:34.545Z,99.90
2018-10-05T02:56:04.588Z,99.90
2018-10-05T02:58:34.560Z,99.90
2018-10-05T03:01:20.703Z,99.90
2018-10-05T03:03:50.431Z,99.90
2018-10-05T03:06:20.186Z,99.90
2018-10-05T03:08:49.959Z,99.90
2018-10-05T03:11:19.985Z,99.90
2018-10-05T03:13:49.986Z,99.90
2018-10-05T03:16:19.801Z,99.90
2018-10-05T03:18:49.812Z,99.90
2018-10-05T03:21:19.909Z,99.90
2018-10-05T03:23:49.947Z,99.90
2018-10-05T03:26:20.131Z,99.90
2018-10-05T03:28:50.086Z,99.90
2018-10-05T03:31:19.843Z,99.90
2018-10-05T03:33:49.567Z,99.90
2018-10-05T03:36:20.015Z,99.90
2018-10-05T03:38:49.842Z,99.90
2018-10-05T03:41:20.066Z,99.90
2018-10-05T03:43:50.139Z,99.90
2018-10-05T03:46:20.023Z,99.90
2018-10-05T03:48:50.050Z,99.90
2018-10-05T03:51:19.839Z,99.90
2018-10-05T03:53:49.736Z,99.90
2018-10-05T03:56:19.640Z,99.90
2018-10-05T03:58:49.689Z,99.90
2018-10-05T04:01:19.452Z,99.90
2018-10-05T04:03:49.528Z,99.90
2018-10-05T04:06:19.495Z,99.90
2018-10-05T04:08:49.455Z,99.90
2018-10-05T04:11:19.200Z,99.90
2018-10-05T04:13:49.220Z,99.90
2018-10-05T04:16:19.312Z,99.90
2018-10-05T04:18:49.167Z,99.90
2018-10-05T04:21:19.413Z,99.90
2018-10-05T04:23:49.356Z,99.90
2018-10-05T04:26:19.445Z,99.90
2018-10-05T04:28:49.256Z,99.90
2018-10-05T04:31:19.051Z,99.90
2018-10-05T04:33:48.940Z,99.90
2018-10-05T04:36:19.086Z,99.90
2018-10-05T04:38:48.964Z,99.90
2018-10-05T04:41:18.862Z,99.90
2018-10-05T04:43:48.896Z,99.90
2018-10-05T04:46:19.872Z,99.90
2018-10-05T04:48:49.678Z,99.90
2018-10-05T04:51:19.743Z,99.90
2018-10-05T04:53:49.758Z,99.90
2018-10-05T04:56:19.817Z,99.90
2018-10-05T04:58:49.749Z,99.90
2018-10-05T05:01:19.669Z,99.90
2018-10-05T05:03:49.549Z,99.90
2018-10-05T05:06:19.428Z,99.90
2018-10-05T05:08:49.396Z,99.90
2018-10-05T05:11:19.932Z,99.90
2018-10-05T05:13:49.998Z,99.90
2018-10-05T05:16:20.383Z,99.90
2018-10-05T05:18:50.245Z,99.90
2018-10-05T05:21:20.065Z,99.90
2018-10-05T05:23:49.883Z,99.90
2018-10-05T05:26:19.823Z,99.90
2018-10-05T05:28:50.471Z,99.90
2018-10-05T05:31:20.454Z,99.90
2018-10-05T05:33:50.894Z,99.90
2018-10-05T05:36:20.913Z,99.90
2018-10-05T05:38:50.718Z,99.90
2018-10-05T05:41:20.692Z,99.90
2018-10-05T05:43:50.661Z,99.90
2018-10-05T05:46:21.310Z,99.90
2018-10-05T05:48:51.739Z,99.90
2018-10-05T05:51:21.809Z,99.90
2018-10-05T05:53:51.736Z,99.90
2018-10-05T05:56:24.056Z,99.90
2018-10-05T05:58:54.021Z,99.90
2018-10-05T06:01:25.491Z,99.90
2018-10-05T06:04:13.648Z,99.90
2018-10-05T06:06:43.499Z,99.90
2018-10-05T06:09:13.364Z,99.90
2018-10-05T06:11:44.922Z,99.90
2018-10-05T06:14:14.915Z,99.90
2018-10-05T06:16:44.795Z,99.90
2018-10-05T06:19:15.085Z,99.90
2018-10-05T06:21:45.266Z,99.90
2018-10-05T06:24:15.022Z,99.90
2018-10-05T06:26:46.053Z,99.90
2018-10-05T06:29:16.196Z,99.90
2018-10-05T06:31:46.489Z,99.90
2018-10-05T06:34:16.343Z,99.90
2018-10-05T06:36:46.554Z,99.90
2018-10-05T06:39:17.629Z,99.90
2018-10-05T06:41:47.514Z,99.90
2018-10-05T06:44:17.226Z,99.90
2018-10-05T06:46:47.694Z,99.90
2018-10-05T06:49:17.507Z,99.90
2018-10-05T06:51:47.273Z,99.90
2018-10-05T06:54:17.096Z,99.90
2018-10-05T06:56:46.904Z,99.90
2018-10-05T06:59:17.160Z,99.90
2018-10-05T07:01:46.883Z,99.90
2018-10-05T07:04:16.864Z,99.90
2018-10-05T07:06:47.150Z,99.90
2018-10-05T07:09:16.919Z,99.90
2018-10-05T07:11:46.695Z,99.90
2018-10-05T07:14:17.080Z,99.90
2018-10-05T07:16:47.333Z,99.90
2018-10-05T07:19:17.319Z,99.90
2018-10-05T07:21:47.212Z,99.90
2018-10-05T07:24:16.964Z,99.90
2018-10-05T07:26:46.706Z,99.90
2018-10-05T07:29:16.638Z,99.90
2018-10-05T07:31:46.553Z,99.90
2018-10-05T07:34:16.471Z,99.90
2018-10-05T07:36:46.265Z,99.90
2018-10-05T07:39:16.157Z,99.90
2018-10-05T07:41:46.151Z,99.90
2018-10-05T07:44:16.027Z,99.90
2018-10-05T07:46:46.002Z,99.90
2018-10-05T07:49:16.000Z,99.90
2018-10-05T07:51:45.818Z,99.90
2018-10-05T07:54:15.541Z,99.90
2018-10-05T07:56:45.265Z,99.90
2018-10-05T07:59:15.044Z,99.90
2018-10-05T08:01:44.855Z,99.90
2018-10-05T08:04:15.525Z,99.90
2018-10-05T08:06:45.304Z,99.90
2018-10-05T08:09:15.104Z,99.90
2018-10-05T08:11:44.882Z,99.90
2018-10-05T08:14:15.309Z,99.90
2018-10-05T08:16:45.258Z,99.90
2018-10-05T08:19:15.164Z,99.90
2018-10-05T08:21:44.919Z,99.90
2018-10-05T08:24:14.678Z,99.90
2018-10-05T08:26:44.395Z,99.90
2018-10-05T08:29:14.127Z,99.90
2018-10-05T08:31:43.857Z,99.90
2018-10-05T08:34:13.761Z,99.90
2018-10-05T08:36:43.360Z,99.90
2018-10-05T08:39:13.448Z,99.90
2018-10-05T08:41:43.791Z,99.90
2018-10-05T08:44:13.842Z,99.90
2018-10-05T08:46:43.545Z,99.90
2018-10-05T08:49:13.323Z,99.90
2018-10-05T08:51:43.026Z,99.90
2018-10-05T08:54:12.756Z,99.90
2018-10-05T08:56:42.505Z,99.90
2018-10-05T08:59:12.277Z,99.90
2018-10-05T09:01:42.215Z,99.90
2018-10-05T09:04:12.111Z,99.90
2018-10-05T09:06:42.580Z,99.90
2018-10-05T09:09:12.361Z,99.90
2018-10-05T09:11:42.079Z,99.90
2018-10-05T09:14:12.042Z,99.90
2018-10-05T09:16:52.935Z,99.80
2018-10-05T09:19:22.828Z,99.70
2018-10-05T09:21:52.548Z,98.30
2018-10-05T09:24:22.472Z,97.60
2018-10-05T09:26:53.514Z,98.60
2018-10-05T09:29:23.581Z,98.60
2018-10-05T09:31:53.772Z,97.30
2018-10-05T09:34:29.153Z,97.80
2018-10-05T09:36:59.129Z,96.70
2018-10-05T09:39:29.243Z,96.00
2018-10-05T09:41:59.007Z,96.60
2018-10-05T09:44:29.077Z,96.20
2018-10-05T09:47:10.302Z,95.70
2018-10-05T09:49:42.308Z,96.50
2018-10-05T09:52:12.179Z,94.40
2018-10-05T09:54:42.263Z,94.50
2018-10-05T09:57:15.927Z,94.10
2018-10-05T09:59:45.995Z,94.20
2018-10-05T10:04:22.366Z,93.40
2018-10-05T10:06:54.567Z,92.80
2018-10-05T10:09:24.660Z,93.50
2018-10-05T10:11:54.643Z,92.00
2018-10-05T10:14:24.670Z,92.30
2018-10-05T10:16:54.480Z,91.40
2018-10-05T10:19:24.636Z,92.40
2018-10-05T10:21:54.608Z,92.50
2018-10-05T10:24:24.541Z,91.90
2018-10-05T10:26:54.442Z,92.10
2018-10-05T10:29:24.489Z,92.00
2018-10-05T10:31:54.147Z,91.40
2018-10-05T10:34:24.501Z,91.30
2018-10-05T10:36:54.223Z,91.40
2018-10-05T10:39:24.155Z,91.30
2018-10-05T10:41:54.210Z,91.40
2018-10-05T10:44:24.402Z,91.40
2018-10-05T10:46:54.500Z,91.60
2018-10-05T10:49:24.234Z,91.30
2018-10-05T10:51:53.954Z,91.00
2018-10-05T10:54:24.622Z,91.20
2018-10-05T10:56:54.455Z,90.60
2018-10-05T10:59:24.178Z,90.90
2018-10-05T11:01:54.204Z,91.20
2018-10-05T11:04:24.093Z,91.10
2018-10-05T11:06:53.843Z,90.80
2018-10-05T11:09:24.841Z,90.60
2018-10-05T11:11:55.036Z,90.40
2018-10-05T11:14:25.409Z,89.70
2018-10-05T11:16:55.399Z,90.00
2018-10-05T11:19:25.475Z,89.70
2018-10-05T11:21:55.271Z,89.00
2018-10-05T11:24:25.364Z,89.60
2018-10-05T11:26:55.104Z,88.90
2018-10-05T11:29:24.842Z,88.10
2018-10-05T11:31:54.575Z,88.40
2018-10-05T11:34:24.319Z,87.90
2018-10-05T11:36:54.053Z,87.50
2018-10-05T11:39:23.937Z,88.50
2018-10-05T11:41:54.188Z,87.00
2018-10-05T11:44:23.984Z,86.70
2018-10-05T11:46:54.396Z,87.30
2018-10-05T11:49:24.321Z,86.00
2018-10-05T11:51:54.461Z,86.00
2018-10-05T11:54:24.484Z,86.50
2018-10-05T11:56:54.168Z,86.70
2018-10-05T11:59:23.910Z,85.80
2018-10-05T12:01:53.667Z,85.10
2018-10-05T12:04:23.855Z,84.30
2018-10-05T12:06:54.074Z,84.20
2018-10-05T12:09:24.143Z,84.70
2018-10-05T12:11:54.125Z,83.80
2018-10-05T12:14:23.875Z,83.20
2018-10-05T12:16:53.653Z,83.20
2018-10-05T12:19:23.371Z,83.90
2018-10-05T12:21:53.110Z,83.00
2018-10-05T12:24:23.231Z,83.00
2018-10-05T12:26:53.286Z,83.00
2018-10-05T12:29:23.215Z,82.80
2018-10-05T12:31:52.970Z,80.30
2018-10-05T12:34:23.149Z,80.70
2018-10-05T12:36:52.904Z,81.30
2018-10-05T12:39:22.810Z,81.00
2018-10-05T12:41:52.632Z,80.90
2018-10-05T12:44:22.346Z,80.10
2018-10-05T12:46:52.084Z,79.70
2018-10-05T12:49:21.823Z,79.70
2018-10-05T12:51:51.563Z,79.10
2018-10-05T12:54:21.543Z,79.10
2018-10-05T12:56:51.332Z,79.10
2018-10-05T12:59:21.271Z,79.70
2018-10-05T13:01:50.986Z,78.60
2018-10-05T13:04:21.083Z,78.40
2018-10-05T13:06:51.097Z,77.70
2018-10-05T13:09:20.813Z,77.90
2018-10-05T13:11:50.526Z,77.10
2018-10-05T13:14:20.235Z,77.20
2018-10-05T13:16:50.192Z,77.20
2018-10-05T13:19:20.325Z,76.50
2018-10-05T13:21:50.456Z,77.30
2018-10-05T13:24:20.781Z,75.60
2018-10-05T13:26:50.938Z,75.30
2018-10-05T13:29:21.193Z,75.20
2018-10-05T13:31:50.925Z,76.30
2018-10-05T13:34:20.591Z,75.50
2018-10-05T13:36:50.343Z,75.60
2018-10-05T13:39:20.459Z,75.50
2018-10-05T13:41:50.562Z,75.00
2018-10-05T13:44:20.262Z,74.80
2018-10-05T13:46:49.971Z,75.20
2018-10-05T13:49:20.823Z,73.60
2018-10-05T13:51:50.580Z,75.50
2018-10-05T13:54:20.686Z,76.40
2018-10-05T13:56:50.697Z,75.60
2018-10-05T13:59:20.486Z,76.20
2018-10-05T14:01:50.207Z,76.60
2018-10-05T14:04:20.376Z,75.90
2018-10-05T14:06:50.483Z,75.70
2018-10-05T14:09:20.147Z,75.40
2018-10-05T14:11:50.220Z,75.50
2018-10-05T14:14:19.903Z,75.40
2018-10-05T14:16:49.592Z,74.30
2018-10-05T14:19:19.890Z,74.00
2018-10-05T14:21:49.920Z,74.10
2018-10-05T14:24:19.613Z,73.80
2018-10-05T14:26:49.379Z,73.80
2018-10-05T14:29:19.071Z,74.70
2018-10-05T14:31:48.853Z,73.90
2018-10-05T14:34:18.628Z,73.40
2018-10-05T14:36:48.566Z,74.10
2018-10-05T14:39:23.468Z,74.60
2018-10-05T14:41:53.705Z,73.30
2018-10-05T14:44:23.532Z,73.70
2018-10-05T14:46:53.235Z,73.10
2018-10-05T14:49:23.096Z,74.20
2018-10-05T14:51:52.779Z,73.10
2018-10-05T14:54:22.478Z,72.10
2018-10-05T14:56:52.434Z,73.90
2018-10-05T14:59:22.526Z,72.50
2018-10-05T15:01:52.192Z,72.00
2018-10-05T15:04:22.467Z,70.90
2018-10-05T15:06:52.206Z,73.60
2018-10-05T15:09:21.890Z,73.70
2018-10-05T15:11:51.945Z,73.80
2018-10-05T15:14:21.640Z,73.80
2018-10-05T15:16:51.291Z,74.40
2018-10-05T15:19:21.795Z,73.30
2018-10-05T15:21:51.522Z,74.80
2018-10-05T15:24:21.205Z,74.50
2018-10-05T15:26:50.951Z,74.10
2018-10-05T15:29:20.604Z,74.30
2018-10-05T15:31:50.420Z,74.50
2018-10-05T15:34:20.414Z,72.70
2018-10-05T15:36:50.471Z,73.50
2018-10-05T15:39:20.436Z,74.00
2018-10-05T15:41:50.656Z,74.20
2018-10-05T15:44:21.527Z,73.00
2018-10-05T15:47:05.000Z,71.40
2018-10-05T15:49:36.291Z,72.40
2018-10-05T15:52:06.502Z,72.60
2018-10-05T15:54:37.384Z,73.10
2018-10-05T15:57:08.181Z,73.70
2018-10-05T15:59:38.475Z,73.40
2018-10-05T16:02:08.308Z,73.40
2018-10-05T16:04:38.332Z,73.70
2018-10-05T16:07:10.302Z,74.10
2018-10-05T16:09:40.406Z,74.20
2018-10-05T16:12:10.431Z,73.60
2018-10-05T16:14:40.171Z,74.60
2018-10-05T16:17:10.128Z,75.10
2018-10-05T16:19:40.048Z,76.60
2018-10-05T16:22:09.883Z,76.90
2018-10-05T16:24:42.609Z,77.20
2018-10-05T16:27:13.443Z,78.50
2018-10-05T16:29:43.311Z,78.70
2018-10-05T16:32:13.238Z,79.20
2018-10-05T16:34:43.094Z,79.30
2018-10-05T16:37:19.648Z,80.20
2018-10-05T16:39:49.653Z,79.20
2018-10-05T16:42:19.716Z,80.40
2018-10-05T16:44:49.593Z,81.40
2018-10-05T16:47:20.934Z,82.10
2018-10-05T16:49:51.089Z,82.90
2018-10-05T16:52:20.892Z,83.70
2018-10-05T16:54:50.867Z,84.60
2018-10-05T16:57:20.839Z,85.10
2018-10-05T16:59:50.488Z,85.50
2018-10-05T17:02:20.547Z,84.00
2018-10-05T17:04:51.368Z,85.60
2018-10-05T17:07:21.170Z,86.00
2018-10-05T17:09:50.938Z,86.30
2018-10-05T17:12:24.388Z,87.00
2018-10-05T17:14:54.237Z,88.10
2018-10-05T17:17:24.828Z,86.90
2018-10-05T17:19:56.033Z,87.70
2018-10-05T17:22:25.855Z,87.90
2018-10-05T17:24:55.651Z,88.90
2018-10-05T17:27:25.753Z,89.60
2018-10-05T17:29:55.807Z,90.20
2018-10-05T17:32:25.663Z,90.50
2018-10-05T17:34:55.453Z,90.80
2018-10-05T17:37:25.479Z,91.00
2018-10-05T17:39:55.329Z,91.40
2018-10-05T17:42:27.332Z,91.60
2018-10-05T17:44:58.379Z,91.80
2018-10-05T17:47:28.603Z,92.10
2018-10-05T17:49:59.044Z,92.50
2018-10-05T17:52:28.939Z,93.00
2018-10-05T17:54:59.254Z,93.30
2018-10-05T17:57:29.092Z,93.50
2018-10-05T17:59:58.992Z,93.50
2018-10-05T18:02:28.820Z,94.30
2018-10-05T18:04:58.865Z,94.10
2018-10-05T18:07:29.870Z,94.60
2018-10-05T18:10:00.525Z,94.70
2018-10-05T18:12:30.363Z,94.80
2018-10-05T18:15:00.205Z,94.80
2018-10-05T18:17:30.558Z,95.10
2018-10-05T18:20:00.462Z,95.10
2018-10-05T18:22:30.293Z,95.10
2018-10-05T18:25:00.549Z,94.80
2018-10-05T18:27:30.376Z,95.20
2018-10-05T18:33:09.357Z,95.70
2018-10-05T18:38:24.341Z,95.90
2018-10-05T18:40:54.165Z,96.70
2018-10-05T18:43:23.927Z,97.00
2018-10-05T18:46:10.598Z,97.80
2018-10-05T18:48:40.587Z,97.90
2018-10-05T18:51:10.522Z,97.90
2018-10-05T18:53:41.751Z,97.60
2018-10-05T18:57:26.072Z,97.80
2018-10-05T18:59:55.951Z,98.10
2018-10-05T19:02:32.872Z,98.30
2018-10-05T19:05:02.827Z,98.20
2018-10-05T19:07:33.489Z,97.90
2018-10-05T19:10:03.328Z,97.90
2018-10-05T19:12:33.144Z,97.90
2018-10-05T19:15:03.061Z,97.80
2018-10-05T19:17:33.398Z,98.30
2018-10-05T19:20:03.366Z,98.00
2018-10-05T19:22:33.394Z,98.00
2018-10-05T19:25:04.398Z,98.30
2018-10-05T19:27:35.607Z,98.10
2018-10-05T19:30:05.604Z,98.80
2018-10-05T19:32:35.587Z,98.90
2018-10-05T19:35:05.955Z,99.70
2018-10-05T19:37:38.205Z,99.70
2018-10-05T19:40:08.574Z,99.90
2018-10-05T19:42:38.322Z,99.20
2018-10-05T19:45:09.328Z,99.10
2018-10-05T19:47:57.717Z,99.30
2018-10-05T19:50:27.839Z,99.90
2018-10-05T19:52:57.743Z,99.90
2018-10-05T19:55:27.486Z,99.90
2018-10-05T19:58:28.481Z,99.90
2018-10-05T20:00:58.515Z,99.90
2018-10-05T20:03:28.776Z,99.90
2018-10-05T20:05:58.975Z,99.90
2018-10-05T20:08:31.485Z,99.90
2018-10-05T20:11:01.389Z,99.90
2018-10-05T20:13:31.708Z,99.90
2018-10-05T20:16:01.448Z,99.90
2018-10-05T20:18:31.290Z,99.90
2018-10-05T20:21:00.978Z,99.90
2018-10-05T20:23:30.681Z,99.90
2018-10-05T20:26:00.568Z,99.90
2018-10-05T20:28:30.490Z,99.90
2018-10-05T20:31:05.675Z,99.90
2018-10-05T20:33:35.659Z,99.90
2018-10-05T20:36:05.556Z,99.90
2018-10-05T20:38:35.799Z,99.90
2018-10-05T20:41:05.574Z,99.90
2018-10-05T20:43:35.288Z,99.90
2018-10-05T20:46:05.385Z,99.90
2018-10-05T20:49:08.697Z,99.90
2018-10-05T20:51:38.809Z,99.90
2018-10-05T20:54:12.067Z,99.90
2018-10-05T20:56:52.479Z,99.90
2018-10-05T20:59:22.347Z,99.90
2018-10-05T21:01:52.179Z,99.90
2018-10-05T21:04:32.097Z,99.90
2018-10-05T21:07:02.005Z,99.90
2018-10-05T21:09:41.973Z,99.90
2018-10-05T21:12:12.693Z,99.90
2018-10-05T21:14:42.643Z,99.90
2018-10-05T21:17:15.649Z,99.90
2018-10-05T21:20:09.232Z,99.90
2018-10-05T21:22:39.040Z,99.90
2018-10-05T21:25:09.908Z,99.90
2018-10-05T21:27:40.543Z,99.90
2018-10-05T21:30:11.458Z,99.90
2018-10-05T21:32:50.563Z,99.90
2018-10-05T21:35:21.602Z,99.90
2018-10-05T21:37:53.076Z,99.90
2018-10-05T21:40:22.990Z,99.90
2018-10-05T21:42:52.726Z,99.90
2018-10-05T21:45:27.068Z,99.90
2018-10-05T21:47:57.938Z,99.90
2018-10-05T21:50:28.754Z,99.90
2018-10-05T21:52:58.649Z,99.90
2018-10-05T21:55:28.835Z,99.90
2018-10-05T21:57:58.828Z,99.90
2018-10-05T22:00:43.275Z,99.90
2018-10-05T22:03:13.034Z,99.90
2018-10-05T22:05:45.122Z,99.90
2018-10-05T22:08:17.209Z,99.90
2018-10-05T22:10:54.111Z,99.90
2018-10-05T22:13:24.017Z,99.90
2018-10-05T22:15:54.028Z,99.90
2018-10-05T22:18:23.812Z,99.90
2018-10-05T22:20:53.530Z,99.90
2018-10-05T22:23:23.319Z,99.90
2018-10-05T22:25:53.182Z,99.90
2018-10-05T22:28:22.907Z,99.90
2018-10-05T22:30:52.648Z,99.90
2018-10-05T22:33:22.632Z,99.90
2018-10-05T22:35:52.451Z,99.90
2018-10-05T22:38:22.357Z,99.90
2018-10-05T22:40:52.791Z,99.90
2018-10-05T22:43:32.051Z,99.90
2018-10-05T22:46:04.616Z,99.90
2018-10-05T22:48:34.420Z,99.90
2018-10-05T22:51:04.192Z,99.90
2018-10-05T22:53:33.923Z,99.90
2018-10-05T22:56:03.891Z,99.90
2018-10-05T22:58:33.731Z,99.90
2018-10-05T23:01:03.674Z,99.90
2018-10-05T23:03:34.004Z,99.90
2018-10-05T23:06:03.695Z,99.90
2018-10-05T23:08:33.435Z,99.90
2018-10-05T23:11:03.131Z,99.90
2018-10-05T23:13:36.258Z,99.90
2018-10-05T23:16:06.122Z,99.90
2018-10-05T23:18:35.830Z,99.90
2018-10-05T23:21:05.583Z,99.90
2018-10-05T23:23:35.295Z,99.90
2018-10-05T23:26:09.497Z,99.90
2018-10-05T23:28:39.317Z,99.90
2018-10-05T23:31:09.035Z,99.90
2018-10-05T23:33:48.326Z,99.90
2018-10-05T23:36:18.273Z,99.90
2018-10-05T23:38:48.203Z,99.90
2018-10-05T23:41:18.027Z,99.90
2018-10-05T23:43:47.747Z,99.90
2018-10-05T23:46:17.456Z,99.90
2018-10-05T23:48:47.260Z,99.90
2018-10-05T23:51:17.208Z,99.90
2018-10-05T23:53:47.009Z,99.90
2018-10-05T23:56:26.028Z,99.90
2018-10-05T23:58:55.995Z,99.90
